createdAt,value
2022-11-18T00:00:23.506Z,23.71
2022-11-18T00:02:29.653Z,24.25
2022-11-18T00:04:35.479Z,22.65
2022-11-18T00:06:42.457Z,23.40
2022-11-18T00:08:50.887Z,22.74
2022-11-18T00:10:59.337Z,19.85
2022-11-18T00:13:18.258Z,21.08
2022-11-18T00:15:28.953Z,20.91
2022-11-18T00:17:37.191Z,19.18
2022-11-18T00:19:44.106Z,19.94
2022-11-18T00:21:50.023Z,19.73
2022-11-18T00:23:55.855Z,18.89
2022-11-18T00:26:09.853Z,19.76
2022-11-18T00:28:15.620Z,19.21
2022-11-18T00:30:23.065Z,19.57
2022-11-18T00:32:29.631Z,19.39
2022-11-18T00:34:35.425Z,21.00
2022-11-18T00:36:43.047Z,19.82
2022-11-18T00:38:49.585Z,26.95
2022-11-18T00:41:03.161Z,27.31
2022-11-18T00:43:08.913Z,20.46
2022-11-18T00:45:15.585Z,21.17
2022-11-18T00:47:21.397Z,20.83
2022-11-18T00:49:28.042Z,22.49
2022-11-18T00:51:34.538Z,27.01
2022-11-18T00:53:40.249Z,25.84
2022-11-18T00:55:46.269Z,25.72
2022-11-18T00:57:52.923Z,26.13
2022-11-18T01:00:09.210Z,27.56
2022-11-18T01:02:33.374Z,27.03
2022-11-18T01:04:39.976Z,26.68
2022-11-18T01:06:45.692Z,24.37
2022-11-18T01:08:51.484Z,20.19
2022-11-18T01:11:18.058Z,21.94
2022-11-18T01:13:24.048Z,19.52
2022-11-18T01:15:32.527Z,19.21
2022-11-18T01:17:45.887Z,18.42
2022-11-18T01:19:51.856Z,19.61
2022-11-18T01:22:09.236Z,19.86
2022-11-18T01:24:22.288Z,19.53
2022-11-18T01:26:28.020Z,18.89
2022-11-18T01:28:33.829Z,18.78
2022-11-18T01:30:44.868Z,20.17
2022-11-18T01:48:08.806Z,29.77
2022-11-18T01:50:19.639Z,29.29
2022-11-18T01:52:26.916Z,27.82
2022-11-18T01:54:39.404Z,28.45
2022-11-18T01:56:53.175Z,28.55
2022-11-18T01:59:08.550Z,29.25
2022-11-18T02:01:17.155Z,27.58
2022-11-18T02:03:33.524Z,28.55
2022-11-18T02:05:46.127Z,27.00
2022-11-18T02:07:54.222Z,27.45
2022-11-18T02:10:11.774Z,29.68
2022-11-18T02:15:14.480Z,22.41
2022-11-18T02:17:44.285Z,22.26
2022-11-18T02:20:21.893Z,21.86
2022-11-18T02:23:00.898Z,21.44
2022-11-18T02:25:24.973Z,22.40
2022-11-18T02:28:20.627Z,22.19
2022-11-18T02:30:29.077Z,22.00
2022-11-18T02:32:45.049Z,21.02
2022-11-18T02:35:05.546Z,21.27
2022-11-18T02:37:25.115Z,20.51
2022-11-18T02:39:41.371Z,21.97
2022-11-18T02:41:52.666Z,19.83
2022-11-18T02:44:07.663Z,19.96
2022-11-18T02:46:26.920Z,19.03
2022-11-18T04:35:23.517Z,23.35
2022-11-18T04:37:30.339Z,21.96
2022-11-18T04:39:36.381Z,22.30
2022-11-18T04:41:54.457Z,21.47
2022-11-18T04:44:13.356Z,23.08
2022-11-18T04:46:19.251Z,23.89
2022-11-18T04:48:27.034Z,23.37
2022-11-18T04:50:42.866Z,23.61
2022-11-18T04:52:48.586Z,23.86
2022-11-18T04:54:54.257Z,23.74
2022-11-18T04:57:01.438Z,23.03
2022-11-18T04:59:08.895Z,24.76
2022-11-18T05:01:14.674Z,25.21
2022-11-18T05:03:21.208Z,25.95
2022-11-18T05:05:26.935Z,25.81
2022-11-18T05:07:35.252Z,25.36
2022-11-18T05:09:41.807Z,25.88
2022-11-18T05:12:01.033Z,25.21
2022-11-18T05:14:06.792Z,25.10
2022-11-18T05:16:13.321Z,24.26
2022-11-18T05:18:19.185Z,25.89
2022-11-18T05:20:25.014Z,25.41
2022-11-18T05:22:40.854Z,24.16
2022-11-18T05:24:49.952Z,24.79
2022-11-18T05:26:56.168Z,24.88
2022-11-18T05:29:09.909Z,24.97
2022-11-18T05:31:19.540Z,26.63
2022-11-18T05:33:32.768Z,27.21
2022-11-18T05:35:40.626Z,27.14
2022-11-18T05:37:48.966Z,22.24
2022-11-18T05:39:54.778Z,21.35
2022-11-18T05:42:19.888Z,22.27
2022-11-18T05:44:28.539Z,21.54
2022-11-18T05:46:35.599Z,21.77
2022-11-18T05:48:42.253Z,22.12
2022-11-18T05:50:54.488Z,24.03
2022-11-18T05:53:02.966Z,23.64
2022-11-18T05:55:12.275Z,23.19
2022-11-18T05:57:18.107Z,23.41
2022-11-18T05:59:24.595Z,23.14
2022-11-18T06:01:40.563Z,23.64
2022-11-18T06:03:46.913Z,23.92
2022-11-18T06:05:56.200Z,23.67
2022-11-18T06:08:12.751Z,23.76
2022-11-18T06:10:27.683Z,24.24
2022-11-18T06:12:48.444Z,24.71
2022-11-18T06:15:03.892Z,24.46
2022-11-18T06:17:21.963Z,25.70
2022-11-18T06:19:34.956Z,25.44
2022-11-18T06:21:41.758Z,26.00
2022-11-18T06:23:51.311Z,26.69
2022-11-18T06:26:02.468Z,26.63
2022-11-18T06:28:09.309Z,26.12
2022-11-18T06:30:17.201Z,25.14
2022-11-18T06:32:29.610Z,26.28
2022-11-18T06:34:41.247Z,26.82
2022-11-18T06:36:47.716Z,27.61
2022-11-18T06:38:56.131Z,27.98
2022-11-18T06:41:09.599Z,27.93
2022-11-18T06:43:28.564Z,28.39
2022-11-18T06:45:34.609Z,29.88
2022-11-18T06:47:38.691Z,30.68
2022-11-18T06:49:44.502Z,29.87
2022-11-18T06:51:50.296Z,29.16
2022-11-18T06:53:59.789Z,29.45
2022-11-18T06:56:20.053Z,28.43
2022-11-18T06:58:25.745Z,29.12
2022-11-18T07:00:32.378Z,28.67
2022-11-18T07:02:39.930Z,29.30
2022-11-18T07:04:45.651Z,27.92
2022-11-18T07:06:52.499Z,28.90
2022-11-18T07:09:03.852Z,29.13
2022-11-18T07:11:14.781Z,27.71
2022-11-18T07:13:21.347Z,26.23
2022-11-18T07:15:42.489Z,28.15
2022-11-18T07:17:48.171Z,27.78
2022-11-18T07:19:56.525Z,27.18
2022-11-18T07:22:02.470Z,26.82
2022-11-18T07:24:18.729Z,27.95
2022-11-18T07:26:26.244Z,26.99
2022-11-18T07:28:33.745Z,25.64
2022-11-18T07:30:39.494Z,26.42
2022-11-18T07:32:46.023Z,29.74
2022-11-18T07:34:55.626Z,30.28
2022-11-18T07:37:01.345Z,29.72
2022-11-18T07:39:11.569Z,29.06
2022-11-18T07:41:20.072Z,26.20
2022-11-18T07:43:25.939Z,28.01
2022-11-18T07:45:32.647Z,27.01
2022-11-18T07:47:38.408Z,25.62
2022-11-18T07:49:44.227Z,23.13
2022-11-18T07:51:50.769Z,25.62
2022-11-18T07:53:57.507Z,25.62
2022-11-18T07:56:13.495Z,25.24
2022-11-18T07:58:20.052Z,25.44
2022-11-18T08:00:26.434Z,27.29
2022-11-18T08:02:32.360Z,26.04
2022-11-18T08:04:40.979Z,26.86
2022-11-18T08:06:46.751Z,25.06
2022-11-18T08:08:52.556Z,28.48
2022-11-18T08:11:00.104Z,27.16
2022-11-18T08:13:08.510Z,24.44
2022-11-18T08:15:20.638Z,22.24
2022-11-18T08:17:27.304Z,20.42
2022-11-18T08:19:37.516Z,20.90
2022-11-18T08:21:43.279Z,22.59
2022-11-18T08:23:54.205Z,23.02
2022-11-18T08:26:07.092Z,23.14
2022-11-18T08:28:17.704Z,22.95
2022-11-18T08:30:24.655Z,25.51
2022-11-18T08:32:30.780Z,27.86
2022-11-18T08:34:36.716Z,28.22
2022-11-18T08:36:43.773Z,28.79
2022-11-18T08:38:49.440Z,24.89
2022-11-18T08:40:55.895Z,26.87
2022-11-18T08:43:02.391Z,28.24
2022-11-18T08:45:12.290Z,30.21
2022-11-18T08:47:20.875Z,26.57
2022-11-18T08:49:32.235Z,27.86
2022-11-18T08:51:38.255Z,26.08
2022-11-18T08:53:43.970Z,26.21
2022-11-18T08:55:59.580Z,25.02
2022-11-18T08:58:05.305Z,25.54
2022-11-18T09:00:16.511Z,26.55
2022-11-18T09:02:26.774Z,26.17
2022-11-18T09:04:32.748Z,25.07
2022-11-18T09:06:46.462Z,25.43
2022-11-18T09:08:53.207Z,24.59
2022-11-18T09:10:58.986Z,22.89
2022-11-18T09:13:25.271Z,22.69
2022-11-18T09:15:36.946Z,22.63
2022-11-18T09:17:42.644Z,24.42
2022-11-18T09:19:48.643Z,25.23
2022-11-18T09:22:02.923Z,26.82
2022-11-18T09:24:17.076Z,26.95
2022-11-18T09:26:26.719Z,27.20
2022-11-18T09:28:36.211Z,24.11
2022-11-18T09:30:46.326Z,27.45
2022-11-18T09:32:58.953Z,23.49
2022-11-18T09:35:05.990Z,27.29
2022-11-18T09:39:16.359Z,25.76
2022-11-18T09:41:46.784Z,28.25
2022-11-18T09:44:16.798Z,28.83
2022-11-18T09:46:36.861Z,30.41
2022-11-18T09:48:55.048Z,28.37
2022-11-18T09:51:01.464Z,27.56
2022-11-18T09:53:22.118Z,25.95
2022-11-18T09:55:33.470Z,27.79
2022-11-18T09:57:46.963Z,27.49
2022-11-18T09:59:54.961Z,27.51
2022-11-18T10:02:29.875Z,25.30
2022-11-18T10:04:35.584Z,27.01
2022-11-18T10:06:42.295Z,28.59
2022-11-18T10:09:16.366Z,28.94
2022-11-18T10:11:31.920Z,29.90
2022-11-18T10:13:58.582Z,33.33
2022-11-18T10:16:30.665Z,29.99
2022-11-18T10:19:00.334Z,27.63
2022-11-18T10:21:27.553Z,24.99
2022-11-18T10:23:54.094Z,27.22
2022-11-18T10:25:59.959Z,26.20
2022-11-18T10:28:29.701Z,25.86
2022-11-18T10:30:35.822Z,27.60
2022-11-18T10:32:58.109Z,27.45
2022-11-18T10:35:04.611Z,27.83
2022-11-18T10:37:38.655Z,27.15
2022-11-18T10:39:56.255Z,29.97
2022-11-18T10:42:09.775Z,29.96
2022-11-18T10:44:40.329Z,29.87
2022-11-18T10:46:46.840Z,30.56
2022-11-18T10:49:19.016Z,37.47
2022-11-18T10:51:28.022Z,38.30
2022-11-18T10:53:39.163Z,39.67
2022-11-18T10:56:01.122Z,40.20
2022-11-18T10:58:22.234Z,40.39
2022-11-18T11:00:48.647Z,38.85
2022-11-18T11:02:56.394Z,39.17
2022-11-18T11:05:07.495Z,39.65
2022-11-18T11:07:32.284Z,41.08
2022-11-18T11:09:45.247Z,45.03
2022-11-18T11:12:04.980Z,41.29
2022-11-18T11:14:26.503Z,40.79
2022-11-18T11:16:50.993Z,42.05
2022-11-18T11:19:05.297Z,38.47
2022-11-18T11:21:17.793Z,38.69
2022-11-18T11:23:28.138Z,38.51
2022-11-18T11:28:30.535Z,40.39
2022-11-18T11:30:49.207Z,40.03
2022-11-18T11:33:24.996Z,41.55
2022-11-18T11:35:45.733Z,40.56
2022-11-18T11:37:58.893Z,42.71
2022-11-18T11:40:29.608Z,44.77
2022-11-18T11:42:59.126Z,44.00
2022-11-18T11:45:27.033Z,45.04
2022-11-18T11:47:57.166Z,45.31
2022-11-18T11:50:25.547Z,44.37
2022-11-18T11:52:48.403Z,43.44
2022-11-18T11:55:18.765Z,46.05
2022-11-18T11:57:48.252Z,41.04
2022-11-18T12:00:08.030Z,41.31
2022-11-18T12:02:56.625Z,39.79
2022-11-18T12:05:24.276Z,39.40
2022-11-18T12:07:41.321Z,41.28
2022-11-18T12:10:23.989Z,42.23
2022-11-18T12:12:47.818Z,38.62
2022-11-18T12:15:07.909Z,39.26
2022-11-18T12:17:29.003Z,40.48
2022-11-18T12:19:42.540Z,40.33
2022-11-18T12:22:07.829Z,40.54
2022-11-18T12:24:37.172Z,39.57
2022-11-18T12:26:43.997Z,41.50
2022-11-18T12:28:50.219Z,42.37
2022-11-18T12:31:39.069Z,39.49
2022-11-18T12:33:48.320Z,42.57
2022-11-18T12:35:55.299Z,43.01
2022-11-18T12:38:06.193Z,40.58
2022-11-18T12:40:33.460Z,40.88
2022-11-18T12:43:00.988Z,41.46
2022-11-18T12:46:03.118Z,42.93
2022-11-18T12:48:46.255Z,43.59
2022-11-18T12:50:54.591Z,43.63
2022-11-18T12:53:00.255Z,41.41
2022-11-18T12:55:21.701Z,42.34
2022-11-18T12:57:33.189Z,40.65
2022-11-18T12:59:41.659Z,38.82
2022-11-18T13:01:48.443Z,38.67
2022-11-18T13:03:55.630Z,39.58
2022-11-18T13:06:09.547Z,41.09
2022-11-18T13:08:21.057Z,39.43
2022-11-18T13:10:35.250Z,43.54
2022-11-18T13:12:41.111Z,40.82
2022-11-18T13:15:01.292Z,39.65
2022-11-18T13:17:43.423Z,36.03
2022-11-18T13:20:01.113Z,37.19
2022-11-18T13:22:31.583Z,35.57
2022-11-18T13:24:48.882Z,34.50
2022-11-18T13:27:04.842Z,38.42
2022-11-18T13:29:38.837Z,38.46
2022-11-18T13:32:05.740Z,39.52
2022-11-18T13:34:21.792Z,39.58
2022-11-18T13:36:29.607Z,36.71
2022-11-18T13:38:35.510Z,35.36
2022-11-18T13:41:04.726Z,36.36
2022-11-18T13:43:15.565Z,39.23
2022-11-18T13:45:23.323Z,37.63
2022-11-18T13:47:44.607Z,36.32
2022-11-18T13:50:03.467Z,35.67
2022-11-18T13:52:16.292Z,36.34
2022-11-18T13:54:30.340Z,38.82
2022-11-18T13:56:37.078Z,37.80
2022-11-18T14:01:26.676Z,37.05
2022-11-18T14:03:39.862Z,34.00
2022-11-18T14:05:45.523Z,32.36
2022-11-18T14:08:09.177Z,35.63
2022-11-18T14:10:19.294Z,35.93
2022-11-18T14:12:29.196Z,34.85
2022-11-18T14:14:41.458Z,36.81
2022-11-18T14:16:47.292Z,38.23
2022-11-18T14:18:55.110Z,38.63
2022-11-18T14:21:04.616Z,39.50
2022-11-18T14:23:20.932Z,38.75
2022-11-18T14:25:34.355Z,39.82
2022-11-18T14:27:45.590Z,40.37
2022-11-18T14:29:55.805Z,41.68
2022-11-18T14:32:23.602Z,39.86
2022-11-18T14:34:31.300Z,38.69
2022-11-18T14:40:49.524Z,39.57
2022-11-18T14:42:55.241Z,41.57
2022-11-18T14:45:01.048Z,42.03
2022-11-18T14:47:27.072Z,44.09
2022-11-18T14:49:34.939Z,41.84
2022-11-18T14:51:40.722Z,41.95
2022-11-18T14:53:49.863Z,42.25
2022-11-18T14:56:01.595Z,42.55
2022-11-18T14:58:07.354Z,40.98
2022-11-18T15:00:19.830Z,39.20
2022-11-18T15:02:26.606Z,38.55
2022-11-18T15:04:32.363Z,40.58
2022-11-18T15:06:40.076Z,40.02
2022-11-18T15:08:51.642Z,39.26
2022-11-18T15:10:57.298Z,41.12
2022-11-18T15:13:04.232Z,50.53
2022-11-18T15:15:11.031Z,56.79
2022-11-18T15:17:22.474Z,42.11
2022-11-18T15:19:32.281Z,43.86
2022-11-18T15:21:38.117Z,42.13
2022-11-18T15:23:44.276Z,37.90
2022-11-18T15:25:53.462Z,37.88
2022-11-18T15:27:59.180Z,38.35
2022-11-18T15:30:05.553Z,36.60
2022-11-18T15:32:18.790Z,32.37
2022-11-18T15:34:25.001Z,32.54
2022-11-18T15:36:37.981Z,32.98
2022-11-18T15:38:56.015Z,30.67
2022-11-18T15:41:04.380Z,29.33
2022-11-18T15:43:10.216Z,26.98
2022-11-18T15:45:16.782Z,27.34
2022-11-18T15:47:22.604Z,31.17
2022-11-18T15:49:28.669Z,33.26
2022-11-18T15:51:35.330Z,30.89
2022-11-18T15:53:41.268Z,31.98
2022-11-18T15:55:47.076Z,35.41
2022-11-18T15:57:56.241Z,34.48
2022-11-18T16:00:08.111Z,31.40
2022-11-18T16:02:18.204Z,37.46
2022-11-18T16:04:24.787Z,36.37
2022-11-18T16:06:31.030Z,35.60
2022-11-18T16:08:36.709Z,37.78
2022-11-18T16:10:55.570Z,48.01
2022-11-18T16:13:03.879Z,41.86
2022-11-18T16:15:29.331Z,35.04
2022-11-18T16:17:38.202Z,34.36
2022-11-18T16:19:44.011Z,31.19
2022-11-18T16:21:53.439Z,32.94
2022-11-18T16:24:05.974Z,29.13
2022-11-18T16:26:11.750Z,29.83
2022-11-18T16:28:20.159Z,31.21
2022-11-18T16:30:39.168Z,30.73
2022-11-18T16:32:44.812Z,32.94
2022-11-18T16:34:51.795Z,32.79
2022-11-18T16:37:02.848Z,36.11
2022-11-18T16:39:32.019Z,35.55
2022-11-18T16:42:08.050Z,32.17
2022-11-18T16:44:19.498Z,33.00
2022-11-18T16:46:25.147Z,33.90
2022-11-18T16:48:30.995Z,35.09
2022-11-18T16:52:05.021Z,34.41
2022-11-18T16:54:20.990Z,34.52
2022-11-18T16:56:29.916Z,35.84
2022-11-18T16:58:42.329Z,36.14
2022-11-18T17:01:16.835Z,38.94
2022-11-18T17:03:14.517Z,39.01
2022-11-18T17:05:20.308Z,35.36
2022-11-18T17:07:31.596Z,33.64
2022-11-18T17:09:41.258Z,33.67
2022-11-18T17:11:47.434Z,34.85
2022-11-18T17:13:58.045Z,35.33
2022-11-18T17:16:07.997Z,37.21
2022-11-18T17:18:13.761Z,35.33
2022-11-18T17:20:22.238Z,31.43
2022-11-18T17:22:30.721Z,32.83
2022-11-18T17:24:36.557Z,33.27
2022-11-18T17:28:10.811Z,37.74
2022-11-18T17:30:18.148Z,34.24
2022-11-18T17:32:23.803Z,43.44
2022-11-18T17:34:29.565Z,39.48
2022-11-18T17:36:36.261Z,41.89
2022-11-18T17:38:45.120Z,43.76
2022-11-18T17:40:57.714Z,43.31
2022-11-18T17:43:01.809Z,42.39
2022-11-18T17:45:12.725Z,47.67
2022-11-18T17:47:21.240Z,49.30
2022-11-18T17:49:27.915Z,47.66
2022-11-18T17:51:34.801Z,48.55
2022-11-18T17:53:43.499Z,53.09
2022-11-18T17:55:50.832Z,43.46
2022-11-18T17:57:59.261Z,47.42
2022-11-18T18:00:05.686Z,45.95
2022-11-18T18:02:18.891Z,44.42
2022-11-18T18:04:24.976Z,43.64
2022-11-18T18:06:30.720Z,46.00
2022-11-18T18:08:37.993Z,44.85
2022-11-18T18:10:46.377Z,44.82
2022-11-18T18:13:04.640Z,39.36
2022-11-18T18:15:12.480Z,38.02
2022-11-18T18:17:21.247Z,38.52
2022-11-18T18:19:28.331Z,39.99
2022-11-18T18:21:35.861Z,38.31
2022-11-18T18:23:41.663Z,39.39
2022-11-18T18:25:47.378Z,37.58
2022-11-18T18:27:54.056Z,37.36
2022-11-18T18:29:59.810Z,35.58
2022-11-18T18:32:06.458Z,36.39
2022-11-18T18:34:15.700Z,38.18
2022-11-18T18:36:25.345Z,41.48
2022-11-18T18:38:34.533Z,39.18
2022-11-18T18:40:41.100Z,37.82
2022-11-18T18:45:01.695Z,38.43
2022-11-18T18:47:08.335Z,37.88
2022-11-18T18:49:20.631Z,40.19
2022-11-18T18:51:26.894Z,41.54
2022-11-18T18:53:34.711Z,41.67
2022-11-18T18:55:44.718Z,40.51
2022-11-18T18:57:50.857Z,40.58
2022-11-18T19:00:00.046Z,41.12
2022-11-18T19:02:06.821Z,41.41
2022-11-18T19:04:16.786Z,39.11
2022-11-18T19:06:52.003Z,37.30
2022-11-18T19:08:52.902Z,38.24
2022-11-18T19:10:58.676Z,37.96
2022-11-18T19:13:02.681Z,38.38
2022-11-18T19:15:14.039Z,37.49
2022-11-18T19:17:19.960Z,35.30
2022-11-18T19:19:42.901Z,32.01
2022-11-18T19:21:50.217Z,33.21
2022-11-18T19:23:56.803Z,35.46
2022-11-18T19:26:03.536Z,34.33
2022-11-18T19:28:09.313Z,33.57
2022-11-18T19:30:17.956Z,34.74
2022-11-18T19:32:24.619Z,36.92
2022-11-18T19:34:30.350Z,37.17
2022-11-18T19:36:37.432Z,37.71
2022-11-18T19:38:44.537Z,32.18
2022-11-18T19:40:50.490Z,28.23
2022-11-18T19:42:56.867Z,28.46
2022-11-18T19:45:03.481Z,29.00
2022-11-18T19:47:11.920Z,27.50
2022-11-18T19:49:18.070Z,26.31
2022-11-18T19:51:26.107Z,26.02
2022-11-18T19:53:39.264Z,26.38
2022-11-18T19:55:45.016Z,25.89
2022-11-18T19:57:51.731Z,24.43
2022-11-18T19:59:57.545Z,24.31
2022-11-18T20:02:03.705Z,25.64
2022-11-18T20:04:12.962Z,26.84
2022-11-18T20:06:20.659Z,26.92
2022-11-18T20:08:28.233Z,28.13
2022-11-18T20:10:35.090Z,29.38
2022-11-18T20:12:40.942Z,29.14
2022-11-18T20:14:46.698Z,29.71
2022-11-18T20:16:54.599Z,28.50
2022-11-18T20:19:09.315Z,26.49
2022-11-18T20:21:23.037Z,28.95
2022-11-18T20:23:29.513Z,27.95
2022-11-18T20:25:35.287Z,28.07
2022-11-18T20:27:41.166Z,26.13
2022-11-18T20:29:48.448Z,26.39
2022-11-18T20:31:55.287Z,24.72
2022-11-18T20:34:01.107Z,26.35
2022-11-18T20:36:10.501Z,24.62
2022-11-18T20:38:18.910Z,25.67
2022-11-18T20:40:24.652Z,22.98
2022-11-18T20:42:44.221Z,23.25
2022-11-18T20:44:50.334Z,22.35
2022-11-18T20:46:56.072Z,20.88
2022-11-18T20:49:19.541Z,21.82
2022-11-18T20:51:29.061Z,20.20
2022-11-18T20:53:38.943Z,21.49
2022-11-18T20:55:44.917Z,22.49
2022-11-18T20:57:51.663Z,22.23
2022-11-18T20:59:57.497Z,20.88
2022-11-18T21:02:03.488Z,22.93
2022-11-18T21:04:10.071Z,23.58
2022-11-18T21:06:17.880Z,23.22
2022-11-18T21:08:23.706Z,23.44
2022-11-18T21:10:33.568Z,22.16
2022-11-18T21:12:59.368Z,22.70
2022-11-18T21:15:02.914Z,22.70
2022-11-18T21:17:09.539Z,23.22
2022-11-18T21:19:16.807Z,22.13
2022-11-18T21:21:40.689Z,21.83
2022-11-18T21:23:47.356Z,23.49
2022-11-18T21:25:55.940Z,25.12
2022-11-18T21:28:02.093Z,25.36
2022-11-18T21:30:10.817Z,25.07
2022-11-18T21:32:19.067Z,25.64
2022-11-18T21:34:25.627Z,24.23
2022-11-18T21:36:32.654Z,24.99
2022-11-18T21:38:38.445Z,24.80
2022-11-18T21:40:44.297Z,22.83
2022-11-18T21:42:58.128Z,22.40
2022-11-18T21:45:03.946Z,23.65
2022-11-18T21:47:09.650Z,23.22
2022-11-18T21:49:16.612Z,23.88
2022-11-18T21:51:25.462Z,20.99
2022-11-18T21:53:32.069Z,21.27
2022-11-18T21:55:38.629Z,23.41
2022-11-18T21:57:44.612Z,22.02
2022-11-18T21:59:56.296Z,20.54
2022-11-18T22:02:02.833Z,20.84
2022-11-18T22:04:29.077Z,20.95
2022-11-18T22:06:37.153Z,19.92
2022-11-18T22:08:45.391Z,22.75
2022-11-18T22:10:51.144Z,22.47
2022-11-18T22:12:56.939Z,21.05
2022-11-18T22:15:06.273Z,21.49
2022-11-18T22:17:12.521Z,22.80
2022-11-18T22:19:18.170Z,22.85
2022-11-18T22:21:26.672Z,23.13
2022-11-18T22:23:35.443Z,22.87
2022-11-18T22:25:41.244Z,23.09
2022-11-18T22:27:47.748Z,23.11
2022-11-18T22:29:53.498Z,22.63
2022-11-18T22:32:02.070Z,22.39
2022-11-18T22:34:08.726Z,24.04
2022-11-18T22:36:17.998Z,24.83
2022-11-18T22:38:23.704Z,24.69
2022-11-18T22:40:30.362Z,25.26
2022-11-18T22:42:48.337Z,25.75
2022-11-18T22:44:54.090Z,25.90
2022-11-18T22:47:03.293Z,26.17
2022-11-18T22:49:10.921Z,26.17
2022-11-18T22:51:16.690Z,26.56
2022-11-18T22:53:23.334Z,27.29
2022-11-18T22:55:29.094Z,27.27
2022-11-18T22:57:36.962Z,28.14
2022-11-18T22:59:43.584Z,28.81
2022-11-18T23:01:49.350Z,29.46
2022-11-18T23:03:57.723Z,29.75
2022-11-18T23:06:06.236Z,29.50
2022-11-18T23:08:11.938Z,30.04
2022-11-18T23:10:17.896Z,28.93
2022-11-18T23:12:36.897Z,30.27
2022-11-18T23:14:42.690Z,30.93
2022-11-18T23:16:48.634Z,29.74
2022-11-18T23:18:57.728Z,28.34
2022-11-18T23:21:05.891Z,28.36
2022-11-18T23:23:11.616Z,27.96
2022-11-18T23:25:18.441Z,27.29
2022-11-18T23:27:24.132Z,28.80
2022-11-18T23:29:30.051Z,28.68
2022-11-18T23:31:37.097Z,27.77
2022-11-18T23:33:44.570Z,28.38
2022-11-18T23:35:57.872Z,28.24
2022-11-18T23:38:04.406Z,27.81
2022-11-18T23:40:12.536Z,28.01
2022-11-18T23:42:18.217Z,27.29
2022-11-18T23:44:45.032Z,28.18
2022-11-18T23:46:50.730Z,27.10
2022-11-18T23:48:57.059Z,27.78
2022-11-18T23:51:09.642Z,25.50
2022-11-18T23:53:15.378Z,25.75
2022-11-18T23:55:21.114Z,26.06
2022-11-18T23:57:30.545Z,27.04
2022-11-18T23:59:36.756Z,27.05
